Time;durP1;ratioP1;P1;durP2;ratioP2;P2;SDS_P1;SDS_P2;PMS_P1;PMS_P2;Temp;Humidity;BMP_temperature;BMP_pressure;BME280_temperature;BME280_humidity;BME280_pressure;Samples;Min_cycle;Max_cycle;Signal;HPM_P1;HPM_P2
2023/11/19 00:00:29;;;;;;;8.60;2.63;;;8.20;99.90;;;;;;5043896;28;20480;-68
2023/11/19 00:02:56;;;;;;;9.47;2.30;;;8.30;99.90;;;;;;5043622;28;20460;-72
2023/11/19 00:05:25;;;;;;;8.80;2.50;;;8.30;99.90;;;;;;5043856;28;20506;-71
2023/11/19 00:07:52;;;;;;;8.27;2.60;;;8.20;99.90;;;;;;5046972;28;21144;-71
2023/11/19 00:10:21;;;;;;;8.30;2.47;;;8.20;99.90;;;;;;5047553;28;20451;-71
2023/11/19 00:12:50;;;;;;;7.63;2.83;;;8.20;99.90;;;;;;5047227;28;20489;-70
2023/11/19 00:15:19;;;;;;;9.03;2.97;;;8.20;99.90;;;;;;5047422;28;20432;-67
2023/11/19 00:17:49;;;;;;;8.90;3.00;;;8.30;99.90;;;;;;5047438;28;20451;-65
2023/11/19 00:20:19;;;;;;;8.20;2.87;;;8.20;99.90;;;;;;5047583;28;20490;-66
2023/11/19 00:22:48;;;;;;;8.53;2.63;;;8.20;99.90;;;;;;5048192;28;21112;-70
2023/11/19 00:25:18;;;;;;;8.80;2.70;;;8.30;99.90;;;;;;5047958;28;20821;-68
2023/11/19 00:27:46;;;;;;;7.87;2.53;;;8.30;99.90;;;;;;5047470;28;20444;-66
2023/11/19 00:30:15;;;;;;;9.00;2.83;;;8.40;99.90;;;;;;5047912;28;20934;-67
2023/11/19 00:32:43;;;;;;;7.40;2.50;;;8.40;99.90;;;;;;5049258;28;20437;-66
2023/11/19 00:35:13;;;;;;;11.03;3.00;;;8.40;99.90;;;;;;5047591;28;20455;-67
2023/11/19 00:37:45;;;;;;;9.50;2.73;;;8.40;99.90;;;;;;5047854;28;20448;-68
2023/11/19 00:40:13;;;;;;;9.23;2.67;;;8.40;99.90;;;;;;5047607;28;20566;-66
2023/11/19 00:42:43;;;;;;;7.30;2.47;;;8.50;99.90;;;;;;5045682;28;21307;-66
2023/11/19 00:45:12;;;;;;;9.20;3.20;;;8.50;99.90;;;;;;5047398;28;20456;-69
2023/11/19 00:47:41;;;;;;;7.90;2.93;;;8.50;99.90;;;;;;5051995;28;20450;-68
2023/11/19 00:50:10;;;;;;;9.30;3.00;;;8.50;99.90;;;;;;5047338;28;20461;-67
2023/11/19 00:52:40;;;;;;;7.77;3.00;;;8.50;99.90;;;;;;5047195;28;20504;-68
2023/11/19 00:55:08;;;;;;;8.47;2.77;;;8.50;99.90;;;;;;5046204;28;20450;-70
2023/11/19 00:57:36;;;;;;;8.30;2.57;;;8.50;99.90;;;;;;5046912;28;20441;-67
2023/11/19 01:00:17;;;;;;;7.13;2.23;;;8.50;99.90;;;;;;5046696;28;20495;-68
2023/11/19 01:02:47;;;;;;;10.37;3.37;;;8.50;99.90;;;;;;5046668;28;20441;-70
2023/11/19 01:05:15;;;;;;;7.80;2.50;;;8.50;99.90;;;;;;5046250;28;20568;-68
2023/11/19 01:07:45;;;;;;;8.30;2.80;;;8.50;99.90;;;;;;5046850;28;20461;-68
2023/11/19 01:10:13;;;;;;;8.07;2.43;;;8.60;99.90;;;;;;5047105;28;20473;-68
2023/11/19 01:12:41;;;;;;;9.27;3.17;;;8.60;99.90;;;;;;5046825;28;20963;-68
2023/11/19 01:15:09;;;;;;;7.80;2.03;;;8.60;99.90;;;;;;5046171;28;21082;-67
2023/11/19 01:17:39;;;;;;;7.70;2.50;;;8.70;99.90;;;;;;5045546;28;20443;-67
2023/11/19 01:20:08;;;;;;;7.70;2.10;;;8.70;99.90;;;;;;5046284;28;20492;-70
2023/11/19 01:22:36;;;;;;;7.97;2.20;;;8.80;99.90;;;;;;5046679;28;20451;-69
2023/11/19 01:25:06;;;;;;;8.77;2.37;;;8.80;99.90;;;;;;5047204;28;21112;-65
2023/11/19 01:27:35;;;;;;;8.77;2.30;;;8.80;99.90;;;;;;5047446;28;20585;-69
2023/11/19 01:30:04;;;;;;;7.80;2.33;;;8.80;99.90;;;;;;5044084;28;20451;-68
2023/11/19 01:32:31;;;;;;;7.90;2.53;;;8.90;99.90;;;;;;5046868;28;20490;-67
2023/11/19 01:34:59;;;;;;;9.93;2.53;;;8.90;99.90;;;;;;5047735;28;20929;-68
2023/11/19 01:37:28;;;;;;;8.67;2.70;;;8.90;99.90;;;;;;5049958;28;20450;-68
2023/11/19 01:39:55;;;;;;;8.23;2.70;;;9.00;99.90;;;;;;5049459;28;20487;-67
2023/11/19 01:42:28;;;;;;;8.40;2.10;;;9.00;99.90;;;;;;5049554;28;20453;-66
2023/11/19 01:45:00;;;;;;;7.10;1.90;;;9.00;99.90;;;;;;5049258;28;20914;-67
2023/11/19 01:47:31;;;;;;;7.13;1.90;;;9.00;99.90;;;;;;5048769;28;20451;-67
2023/11/19 01:50:00;;;;;;;7.40;2.20;;;9.10;99.90;;;;;;5049588;28;20536;-68
2023/11/19 01:52:28;;;;;;;8.27;2.70;;;9.00;99.90;;;;;;5048833;28;20456;-70
2023/11/19 01:54:56;;;;;;;6.90;1.87;;;9.10;99.90;;;;;;5049097;28;20447;-68
2023/11/19 01:57:25;;;;;;;7.37;1.77;;;9.10;99.90;;;;;;5048751;28;20454;-68
2023/11/19 01:59:55;;;;;;;8.13;2.37;;;9.20;99.90;;;;;;5049063;28;21049;-69
2023/11/19 02:02:23;;;;;;;7.73;2.60;;;9.10;99.90;;;;;;5049636;28;20497;-68
2023/11/19 02:04:53;;;;;;;7.80;2.40;;;9.10;99.90;;;;;;5049459;28;20542;-69
2023/11/19 02:07:22;;;;;;;9.83;2.20;;;9.10;99.90;;;;;;5049086;28;20797;-68
2023/11/19 02:09:50;;;;;;;7.00;1.83;;;9.10;99.90;;;;;;5048887;28;21192;-68
2023/11/19 02:12:20;;;;;;;7.93;2.17;;;9.10;99.90;;;;;;5049335;28;20437;-69
2023/11/19 02:14:48;;;;;;;8.00;2.13;;;9.20;99.90;;;;;;5048853;28;20521;-70
2023/11/19 02:17:31;;;;;;;7.23;2.20;;;9.10;99.90;;;;;;5048877;28;20458;-67
2023/11/19 02:19:59;;;;;;;7.60;2.00;;;9.10;99.90;;;;;;5049028;28;20443;-66
2023/11/19 02:22:27;;;;;;;7.20;2.10;;;9.20;99.90;;;;;;5049143;28;21237;-66
2023/11/19 02:25:02;;;;;;;7.20;2.10;;;9.20;99.90;;;;;;5048966;28;20455;-67
2023/11/19 02:27:42;;;;;;;8.00;2.17;;;9.20;99.90;;;;;;5049308;28;20924;-71
2023/11/19 02:30:11;;;;;;;8.07;2.00;;;9.10;99.90;;;;;;5048711;28;20524;-69
2023/11/19 02:32:40;;;;;;;8.37;3.40;;;9.20;99.90;;;;;;5049373;28;20451;-67
2023/11/19 02:35:09;;;;;;;7.70;3.10;;;9.30;99.90;;;;;;5048965;28;20447;-67
2023/11/19 02:37:37;;;;;;;8.70;2.93;;;9.20;99.90;;;;;;5048776;28;20545;-68
2023/11/19 02:40:08;;;;;;;7.50;2.57;;;9.20;99.90;;;;;;5048866;28;20481;-68
2023/11/19 02:42:37;;;;;;;7.93;2.53;;;9.10;99.90;;;;;;5048721;28;21024;-71
2023/11/19 02:45:07;;;;;;;8.27;2.70;;;9.10;99.90;;;;;;5048806;28;20452;-66
2023/11/19 02:47:36;;;;;;;8.37;2.73;;;9.10;99.90;;;;;;5048160;28;20482;-69
2023/11/19 02:50:06;;;;;;;7.67;2.13;;;9.10;99.90;;;;;;5049081;28;20451;-67
2023/11/19 02:52:37;;;;;;;7.80;2.00;;;9.10;99.90;;;;;;5048470;28;20453;-68
2023/11/19 02:55:09;;;;;;;8.60;2.37;;;9.00;99.90;;;;;;5046180;28;20454;-69
2023/11/19 02:57:37;;;;;;;8.27;2.60;;;9.10;99.90;;;;;;5048102;28;20440;-70
2023/11/19 03:00:12;;;;;;;7.73;2.17;;;9.10;99.90;;;;;;5045602;28;21049;-71
2023/11/19 03:02:44;;;;;;;7.70;2.50;;;9.10;99.90;;;;;;5047415;28;20552;-66
2023/11/19 03:05:14;;;;;;;9.33;3.07;;;9.10;99.90;;;;;;5048056;28;20471;-70
2023/11/19 03:07:43;;;;;;;7.93;2.77;;;9.20;99.90;;;;;;5048121;28;20450;-67
2023/11/19 03:10:13;;;;;;;7.77;2.60;;;9.20;99.90;;;;;;5048684;28;20451;-68
2023/11/19 03:12:42;;;;;;;7.43;2.63;;;9.10;99.90;;;;;;5048368;28;21225;-67
2023/11/19 03:15:12;;;;;;;8.67;3.00;;;9.30;99.90;;;;;;5048309;28;20483;-69
2023/11/19 03:17:41;;;;;;;8.47;2.57;;;9.40;99.90;;;;;;5048439;28;20447;-69
2023/11/19 03:20:11;;;;;;;7.90;3.00;;;9.30;99.90;;;;;;5048252;28;20451;-67
2023/11/19 03:22:39;;;;;;;8.90;2.80;;;9.20;99.90;;;;;;5047978;28;20902;-68
2023/11/19 03:25:08;;;;;;;8.27;2.67;;;9.20;99.90;;;;;;5048338;28;20513;-71
2023/11/19 03:27:36;;;;;;;8.10;2.90;;;9.20;99.90;;;;;;5048348;28;20906;-69
2023/11/19 03:30:05;;;;;;;8.20;2.77;;;9.20;99.90;;;;;;5048337;28;20440;-68
2023/11/19 03:32:35;;;;;;;7.20;2.37;;;9.20;99.90;;;;;;5048151;28;20505;-70
2023/11/19 03:35:04;;;;;;;7.30;2.40;;;9.30;99.90;;;;;;5047668;28;20483;-69
2023/11/19 03:37:33;;;;;;;8.23;3.33;;;9.30;99.90;;;;;;5048125;28;20456;-68
2023/11/19 03:40:01;;;;;;;8.00;2.43;;;9.30;99.90;;;;;;5048302;28;20479;-68
2023/11/19 03:42:30;;;;;;;9.23;3.00;;;9.40;99.90;;;;;;5050563;28;20520;-68
2023/11/19 03:44:58;;;;;;;7.90;2.50;;;9.40;99.90;;;;;;5052131;28;20482;-65
2023/11/19 03:47:27;;;;;;;7.50;2.40;;;9.30;99.90;;;;;;5051675;28;20495;-70
2023/11/19 03:49:56;;;;;;;11.63;3.73;;;9.30;99.90;;;;;;5051442;28;20959;-67
2023/11/19 03:52:25;;;;;;;10.77;4.13;;;9.30;99.90;;;;;;5051088;28;20445;-70
2023/11/19 03:54:55;;;;;;;9.37;3.47;;;9.30;99.90;;;;;;5051549;28;20813;-69
2023/11/19 03:57:23;;;;;;;21.77;4.53;;;9.30;99.90;;;;;;5051328;28;21144;-68
2023/11/19 03:59:51;;;;;;;8.60;3.37;;;9.30;99.90;;;;;;5051651;28;20561;-68
2023/11/19 04:02:19;;;;;;;10.10;3.87;;;9.30;99.90;;;;;;5051169;28;20493;-67
2023/11/19 04:04:48;;;;;;;10.33;4.20;;;9.40;99.90;;;;;;5056936;28;20475;-70
2023/11/19 04:07:17;;;;;;;9.40;3.60;;;9.40;99.90;;;;;;5051195;28;20509;-70
2023/11/19 04:09:46;;;;;;;8.50;3.33;;;9.50;99.90;;;;;;5051021;28;20463;-68
2023/11/19 04:12:14;;;;;;;8.43;3.40;;;9.50;99.90;;;;;;5051136;28;20465;-69
2023/11/19 04:14:42;;;;;;;7.93;2.63;;;9.50;99.90;;;;;;5050823;28;20505;-72
2023/11/19 04:17:10;;;;;;;8.57;2.90;;;9.50;99.90;;;;;;5051012;28;20448;-68
2023/11/19 04:19:41;;;;;;;7.97;2.67;;;9.60;99.90;;;;;;5051110;28;20466;-68
2023/11/19 04:22:09;;;;;;;8.63;2.73;;;9.60;99.90;;;;;;5051083;28;20540;-69
2023/11/19 04:24:38;;;;;;;8.33;2.90;;;9.60;99.90;;;;;;5050395;28;20446;-68
2023/11/19 04:27:06;;;;;;;9.43;2.60;;;9.60;99.90;;;;;;5050397;28;21002;-70
2023/11/19 04:29:34;;;;;;;8.57;2.90;;;9.60;99.90;;;;;;5051088;28;20610;-68
2023/11/19 04:32:02;;;;;;;8.03;2.57;;;9.60;99.90;;;;;;5050878;28;20453;-69
2023/11/19 04:34:30;;;;;;;9.20;2.87;;;9.60;99.90;;;;;;5050737;28;20477;-70
2023/11/19 04:36:58;;;;;;;7.90;2.70;;;9.60;99.90;;;;;;5050707;28;20459;-69
2023/11/19 04:39:40;;;;;;;7.67;2.30;;;9.60;99.90;;;;;;5050523;28;20468;-69
2023/11/19 04:42:08;;;;;;;9.33;2.70;;;9.70;99.90;;;;;;5050650;28;20508;-69
2023/11/19 04:44:36;;;;;;;7.93;2.90;;;9.80;99.90;;;;;;5050368;28;21163;-67
2023/11/19 04:47:04;;;;;;;7.80;2.53;;;9.80;99.90;;;;;;5050545;28;20455;-67
2023/11/19 04:49:33;;;;;;;6.97;1.70;;;9.80;99.90;;;;;;5050590;28;20559;-69
2023/11/19 04:52:02;;;;;;;6.33;1.20;;;9.90;99.90;;;;;;5050504;28;20452;-70
2023/11/19 04:54:30;;;;;;;6.47;1.60;;;9.90;99.90;;;;;;5050128;28;20451;-67
2023/11/19 04:56:59;;;;;;;6.87;1.70;;;10.00;99.90;;;;;;5050120;28;20446;-67
2023/11/19 04:59:28;;;;;;;7.90;1.47;;;10.10;99.90;;;;;;5049782;28;20478;-67
2023/11/19 05:01:56;;;;;;;6.67;1.30;;;10.20;99.90;;;;;;5049971;28;20488;-66
2023/11/19 05:04:24;;;;;;;6.70;1.43;;;10.20;99.90;;;;;;5050053;28;20451;-68
2023/11/19 05:06:52;;;;;;;6.20;1.33;;;10.30;99.90;;;;;;5049817;28;20986;-67
2023/11/19 05:09:20;;;;;;;7.53;1.10;;;10.30;99.90;;;;;;5050240;28;20892;-67
2023/11/19 05:11:48;;;;;;;7.63;1.40;;;10.30;99.90;;;;;;5053779;28;20513;-67
2023/11/19 05:14:21;;;;;;;6.23;1.20;;;10.30;99.90;;;;;;5050229;28;20444;-67
2023/11/19 05:16:49;;;;;;;6.60;1.00;;;10.30;99.90;;;;;;5050131;28;20538;-67
2023/11/19 05:19:17;;;;;;;7.10;1.20;;;10.30;99.90;;;;;;5050071;28;20478;-67
2023/11/19 05:21:45;;;;;;;6.30;1.00;;;10.40;99.90;;;;;;5050367;28;20444;-68
2023/11/19 05:24:13;;;;;;;6.00;0.70;;;10.60;99.90;;;;;;5050080;28;20450;-66
2023/11/19 05:26:41;;;;;;;5.67;0.70;;;10.70;99.90;;;;;;5050109;28;20455;-71
2023/11/19 05:29:09;;;;;;;6.00;0.80;;;10.70;99.90;;;;;;5050046;28;20472;-67
2023/11/19 05:31:39;;;;;;;5.73;0.50;;;10.70;99.90;;;;;;5049847;28;20476;-67
2023/11/19 05:34:11;;;;;;;5.53;0.40;;;10.80;99.90;;;;;;5049379;28;20479;-67
2023/11/19 05:36:39;;;;;;;5.90;0.60;;;10.90;99.90;;;;;;5049870;28;20532;-66
2023/11/19 05:39:08;;;;;;;5.60;0.40;;;10.90;99.90;;;;;;5049684;28;20479;-67
2023/11/19 05:41:36;;;;;;;5.73;0.47;;;11.00;99.90;;;;;;5049589;28;20552;-70
2023/11/19 05:44:04;;;;;;;5.70;0.40;;;11.10;99.90;;;;;;5049339;28;21217;-66
2023/11/19 05:46:32;;;;;;;5.60;0.30;;;11.10;99.90;;;;;;5049269;28;20533;-68
2023/11/19 05:49:01;;;;;;;5.60;0.40;;;11.10;99.90;;;;;;5049419;28;20543;-70
2023/11/19 05:51:29;;;;;;;5.60;0.40;;;11.10;99.90;;;;;;5049576;28;20451;-66
2023/11/19 05:53:58;;;;;;;6.00;0.50;;;11.20;99.90;;;;;;5048714;28;20440;-67
2023/11/19 05:56:32;;;;;;;5.90;0.60;;;11.20;99.90;;;;;;5049453;28;20591;-69
2023/11/19 05:59:01;;;;;;;5.90;0.83;;;11.10;99.90;;;;;;5048643;28;20472;-67
2023/11/19 06:01:29;;;;;;;5.60;0.40;;;11.10;99.90;;;;;;5049182;28;21044;-69
2023/11/19 06:03:57;;;;;;;6.17;0.40;;;11.00;99.90;;;;;;5048039;28;20485;-70
2023/11/19 06:06:26;;;;;;;6.27;0.40;;;11.10;99.90;;;;;;5049038;28;20451;-71
2023/11/19 06:08:54;;;;;;;5.80;0.40;;;11.00;99.90;;;;;;5048200;28;20977;-67
2023/11/19 06:11:22;;;;;;;6.73;0.60;;;11.00;99.90;;;;;;5040994;28;20456;-67
2023/11/19 06:13:50;;;;;;;5.50;0.33;;;11.10;99.90;;;;;;5048675;28;21079;-67
2023/11/19 06:16:19;;;;;;;5.80;0.40;;;11.00;99.90;;;;;;5048913;28;20546;-68
2023/11/19 06:18:47;;;;;;;6.00;0.40;;;11.10;99.90;;;;;;5048736;28;20464;-71
2023/11/19 06:21:16;;;;;;;5.40;0.40;;;11.00;99.90;;;;;;5048542;28;20471;-70
2023/11/19 06:23:45;;;;;;;5.70;0.50;;;11.10;99.90;;;;;;5048250;28;20495;-69
2023/11/19 06:26:14;;;;;;;6.23;0.50;;;11.10;99.90;;;;;;5050581;28;20456;-70
2023/11/19 06:28:42;;;;;;;5.80;0.37;;;11.10;99.90;;;;;;5048471;28;20468;-68
2023/11/19 06:31:10;;;;;;;5.80;0.47;;;11.10;99.90;;;;;;5048293;28;20444;-67
2023/11/19 06:33:38;;;;;;;5.57;0.30;;;11.20;99.90;;;;;;5048520;28;20498;-67
2023/11/19 06:36:07;;;;;;;5.80;0.50;;;11.20;99.90;;;;;;5048047;28;20452;-68
2023/11/19 06:38:35;;;;;;;6.23;0.30;;;11.10;99.90;;;;;;5048186;28;20460;-68
2023/11/19 06:41:08;;;;;;;5.60;0.40;;;11.10;99.90;;;;;;5048594;28;20446;-70
2023/11/19 06:43:36;;;;;;;5.60;0.50;;;11.20;99.90;;;;;;5048113;28;20507;-69
2023/11/19 06:46:15;;;;;;;5.60;0.40;;;11.30;99.90;;;;;;4986074;28;20530;-68
2023/11/19 06:48:43;;;;;;;5.70;0.40;;;11.30;99.90;;;;;;4985982;28;20471;-68
2023/11/19 06:51:12;;;;;;;5.50;0.30;;;11.50;99.90;;;;;;4986300;28;20541;-68
2023/11/19 06:53:40;;;;;;;5.60;0.50;;;11.40;99.90;;;;;;4985781;28;20446;-67
2023/11/19 06:56:20;;;;;;;5.60;0.37;;;11.50;99.90;;;;;;4986125;28;20453;-68
2023/11/19 06:58:48;;;;;;;6.33;0.40;;;11.50;99.90;;;;;;4985744;28;20477;-67
2023/11/19 07:01:17;;;;;;;5.70;0.50;;;11.40;99.90;;;;;;4986137;28;20461;-68
2023/11/19 07:03:46;;;;;;;5.80;0.40;;;11.50;99.90;;;;;;5001266;28;20515;-71
2023/11/19 07:06:15;;;;;;;5.80;0.50;;;11.40;99.90;;;;;;5048097;28;20445;-67
2023/11/19 07:08:44;;;;;;;6.57;0.70;;;11.40;99.90;;;;;;5047822;28;20466;-67
2023/11/19 07:11:13;;;;;;;5.80;0.40;;;11.40;99.90;;;;;;5048421;28;20538;-67
2023/11/19 07:13:43;;;;;;;5.90;0.40;;;11.40;99.90;;;;;;5048023;28;20460;-67
2023/11/19 07:16:11;;;;;;;5.73;0.60;;;11.40;99.90;;;;;;5048796;28;20457;-69
2023/11/19 07:18:39;;;;;;;5.73;0.50;;;11.40;99.90;;;;;;5052440;28;20515;-68
2023/11/19 07:21:10;;;;;;;5.80;0.63;;;11.40;99.90;;;;;;5052322;28;20450;-69
2023/11/19 07:23:38;;;;;;;5.77;0.60;;;11.50;99.90;;;;;;5052211;28;20483;-68
2023/11/19 07:26:09;;;;;;;5.87;0.50;;;11.50;99.90;;;;;;5051991;28;20461;-66
2023/11/19 07:28:37;;;;;;;5.50;0.40;;;11.50;99.90;;;;;;5051991;28;20485;-67
2023/11/19 07:31:07;;;;;;;5.73;0.60;;;11.50;99.90;;;;;;5052035;28;20454;-67
2023/11/19 07:33:35;;;;;;;6.27;0.40;;;11.60;99.90;;;;;;5051993;28;20917;-68
2023/11/19 07:36:04;;;;;;;5.63;0.43;;;11.60;99.90;;;;;;5051723;28;20480;-65
2023/11/19 07:38:32;;;;;;;5.57;0.50;;;11.50;99.90;;;;;;5051608;28;20473;-66
2023/11/19 07:41:00;;;;;;;5.77;0.50;;;11.60;99.90;;;;;;5051573;28;20449;-67
2023/11/19 07:43:28;;;;;;;6.70;0.50;;;11.60;99.90;;;;;;5051491;28;20494;-67
2023/11/19 07:45:58;;;;;;;5.70;0.60;;;11.60;99.90;;;;;;5051645;28;20464;-68
2023/11/19 07:48:28;;;;;;;7.53;0.57;;;11.60;99.90;;;;;;5051861;28;20577;-69
2023/11/19 07:50:56;;;;;;;6.87;0.70;;;11.70;99.90;;;;;;5051887;28;20479;-69
2023/11/19 07:53:24;;;;;;;5.80;0.57;;;11.70;99.90;;;;;;5051720;28;20447;-67
2023/11/19 07:55:52;;;;;;;5.60;0.43;;;11.70;99.90;;;;;;5051668;28;20454;-67
2023/11/19 07:58:20;;;;;;;6.00;0.53;;;11.70;99.90;;;;;;5051436;28;20472;-67
2023/11/19 08:00:48;;;;;;;6.80;0.67;;;11.70;99.90;;;;;;5051849;28;20933;-67
2023/11/19 08:03:16;;;;;;;5.63;0.50;;;11.70;99.90;;;;;;5051479;28;20451;-68
2023/11/19 08:05:46;;;;;;;7.50;0.70;;;11.80;99.90;;;;;;5050969;28;20457;-69
2023/11/19 08:08:14;;;;;;;5.87;0.63;;;11.80;99.90;;;;;;5050562;28;20504;-67
2023/11/19 08:10:43;;;;;;;5.70;0.40;;;12.00;99.90;;;;;;5051580;28;20979;-68
2023/11/19 08:13:11;;;;;;;5.67;0.50;;;12.00;99.90;;;;;;5051099;28;20490;-71
2023/11/19 08:15:40;;;;;;;5.73;0.57;;;12.00;99.90;;;;;;5051128;28;20558;-67
2023/11/19 08:18:08;;;;;;;5.90;0.63;;;12.00;99.90;;;;;;5050936;28;20973;-68
2023/11/19 08:20:37;;;;;;;5.73;0.70;;;12.10;99.90;;;;;;5050886;28;20449;-69
2023/11/19 08:23:06;;;;;;;5.70;0.50;;;12.20;99.90;;;;;;5051381;28;20447;-70
2023/11/19 08:25:34;;;;;;;5.53;0.40;;;12.30;99.90;;;;;;5051024;28;20510;-69
2023/11/19 08:28:03;;;;;;;5.53;0.40;;;12.40;99.90;;;;;;5051637;28;20507;-69
2023/11/19 08:30:31;;;;;;;5.80;0.60;;;12.50;99.90;;;;;;5051547;28;20476;-71
2023/11/19 08:33:02;;;;;;;5.57;0.43;;;12.70;99.90;;;;;;5051421;28;20443;-70
2023/11/19 08:35:30;;;;;;;5.60;0.40;;;12.80;99.90;;;;;;5051146;28;20753;-68
2023/11/19 08:37:59;;;;;;;5.90;0.50;;;12.90;99.90;;;;;;5050857;28;20871;-68
2023/11/19 08:40:29;;;;;;;5.90;0.60;;;12.90;99.90;;;;;;5051188;28;20480;-69
2023/11/19 08:42:57;;;;;;;5.80;0.50;;;12.90;99.90;;;;;;5051465;28;20474;-70
2023/11/19 08:45:26;;;;;;;6.07;0.80;;;12.90;99.90;;;;;;5051119;28;20483;-68
2023/11/19 08:47:54;;;;;;;6.27;0.77;;;12.90;99.90;;;;;;5050773;28;20451;-71
2023/11/19 08:50:22;;;;;;;9.40;0.57;;;12.70;99.90;;;;;;5050797;28;20551;-69
2023/11/19 08:52:50;;;;;;;5.57;0.50;;;12.80;99.90;;;;;;5050547;28;20485;-69
2023/11/19 08:55:19;;;;;;;5.80;0.50;;;12.70;99.90;;;;;;5050276;28;20530;-65
2023/11/19 08:57:48;;;;;;;6.53;0.70;;;12.80;99.90;;;;;;5050485;28;20471;-67
2023/11/19 09:00:17;;;;;;;14.20;2.93;;;12.90;99.90;;;;;;5049893;28;20533;-67
2023/11/19 09:02:45;;;;;;;6.43;0.80;;;12.90;99.90;;;;;;5054883;28;20526;-65
2023/11/19 09:05:13;;;;;;;6.33;0.83;;;13.00;99.90;;;;;;5050392;28;20486;-66
2023/11/19 09:07:41;;;;;;;6.17;0.40;;;13.00;99.90;;;;;;5049364;28;20452;-63
2023/11/19 09:10:11;;;;;;;7.90;1.00;;;12.90;99.90;;;;;;5048897;28;20448;-64
2023/11/19 09:12:39;;;;;;;6.83;0.90;;;13.00;99.90;;;;;;5045462;28;20925;-67
2023/11/19 09:15:10;;;;;;;6.20;0.77;;;13.30;99.90;;;;;;5042079;28;20507;-69
2023/11/19 09:17:38;;;;;;;5.70;0.60;;;13.70;99.90;;;;;;5039728;28;21070;-69
2023/11/19 09:20:08;;;;;;;7.77;0.70;;;13.90;99.90;;;;;;5046979;28;20965;-72
2023/11/19 09:22:36;;;;;;;7.47;0.67;;;14.00;99.90;;;;;;5049033;28;21101;-71
2023/11/19 09:25:05;;;;;;;5.80;0.60;;;14.00;99.90;;;;;;5048647;28;21001;-71
2023/11/19 09:27:33;;;;;;;5.87;0.50;;;13.80;99.90;;;;;;5048502;28;20443;-69
2023/11/19 09:30:01;;;;;;;6.50;1.07;;;13.80;99.90;;;;;;5048536;28;20507;-71
2023/11/19 09:32:30;;;;;;;6.17;0.60;;;13.80;99.90;;;;;;5050048;28;20513;-69
2023/11/19 09:34:58;;;;;;;5.93;0.60;;;13.80;99.90;;;;;;5049720;28;20447;-69
2023/11/19 09:37:26;;;;;;;6.10;0.60;;;13.80;99.90;;;;;;5041581;28;20459;-67
2023/11/19 09:39:54;;;;;;;6.17;0.53;;;13.70;99.90;;;;;;5048948;28;20893;-67
2023/11/19 09:42:22;;;;;;;6.17;0.70;;;13.60;99.90;;;;;;5049899;28;20963;-68
2023/11/19 09:44:50;;;;;;;7.47;0.80;;;13.60;99.90;;;;;;5049630;28;20489;-65
2023/11/19 09:47:20;;;;;;;6.30;0.70;;;13.60;99.90;;;;;;5035666;28;20552;-66
2023/11/19 09:49:50;;;;;;;6.67;0.83;;;13.80;99.90;;;;;;5042418;28;20472;-68
2023/11/19 09:52:18;;;;;;;5.90;0.50;;;13.90;99.90;;;;;;5043922;28;20455;-68
2023/11/19 09:54:46;;;;;;;6.57;0.60;;;14.20;99.90;;;;;;5045137;28;20475;-69
2023/11/19 09:57:17;;;;;;;6.60;0.80;;;14.60;99.90;;;;;;5041305;28;20795;-70
2023/11/19 09:59:46;;;;;;;6.00;0.50;;;15.00;99.90;;;;;;5045317;28;20517;-70
2023/11/19 10:02:16;;;;;;;7.00;0.60;;;15.30;99.90;;;;;;5042747;28;20864;-69
2023/11/19 10:04:47;;;;;;;6.67;0.80;;;15.50;99.90;;;;;;5044777;28;20494;-68
2023/11/19 10:07:16;;;;;;;7.27;1.00;;;16.00;99.90;;;;;;5040322;28;20439;-67
2023/11/19 10:09:46;;;;;;;7.23;1.03;;;16.30;99.90;;;;;;5042049;28;20509;-68
2023/11/19 10:12:14;;;;;;;6.10;0.80;;;16.40;99.90;;;;;;5041499;28;20453;-70
2023/11/19 10:14:44;;;;;;;6.50;0.87;;;16.30;99.90;;;;;;5042482;28;20448;-69
2023/11/19 10:17:12;;;;;;;6.30;0.90;;;16.00;99.90;;;;;;5040467;28;20532;-71
2023/11/19 10:19:41;;;;;;;6.30;0.70;;;15.80;99.90;;;;;;5046963;28;20845;-71
2023/11/19 10:22:09;;;;;;;6.20;0.70;;;15.70;99.90;;;;;;5044512;28;20447;-68
2023/11/19 10:24:40;;;;;;;6.00;0.70;;;15.60;99.90;;;;;;5046345;28;20436;-69
2023/11/19 10:27:16;;;;;;;5.87;0.60;;;15.50;99.90;;;;;;5044668;28;20474;-69
2023/11/19 10:29:46;;;;;;;6.70;0.70;;;15.60;99.90;;;;;;5041286;28;20554;-69
2023/11/19 10:32:15;;;;;;;8.00;1.00;;;15.60;99.90;;;;;;5033980;28;20585;-70
2023/11/19 10:35:05;;;;;;;6.03;0.80;;;15.80;99.90;;;;;;5038655;28;20436;-68
2023/11/19 10:37:35;;;;;;;5.90;0.67;;;15.80;99.90;;;;;;5039343;28;20449;-69
2023/11/19 10:40:06;;;;;;;8.93;0.70;;;15.90;99.90;;;;;;5040538;28;20470;-71
2023/11/19 10:42:34;;;;;;;6.57;0.50;;;15.80;99.90;;;;;;5043203;28;21015;-68
2023/11/19 10:45:02;;;;;;;7.40;0.60;;;15.50;99.90;;;;;;5040927;28;20511;-68
2023/11/19 10:47:30;;;;;;;5.63;0.50;;;15.20;99.90;;;;;;5041683;28;20443;-69
2023/11/19 10:50:02;;;;;;;6.67;0.70;;;15.10;99.90;;;;;;5042552;28;20468;-68
2023/11/19 10:52:30;;;;;;;7.23;0.97;;;15.30;99.90;;;;;;5040569;28;20449;-69
2023/11/19 10:55:01;;;;;;;6.40;0.60;;;15.50;99.90;;;;;;5044299;28;20441;-68
2023/11/19 10:57:34;;;;;;;8.70;0.80;;;15.70;99.90;;;;;;5042388;28;21099;-69
2023/11/19 11:00:10;;;;;;;6.83;0.63;;;15.80;99.90;;;;;;5042273;28;20475;-68
2023/11/19 11:02:42;;;;;;;12.47;1.60;;;16.10;99.90;;;;;;5040260;28;20466;-69
2023/11/19 11:05:12;;;;;;;6.73;0.60;;;16.20;99.90;;;;;;5039443;28;20483;-67
2023/11/19 11:07:42;;;;;;;5.80;0.70;;;16.10;99.90;;;;;;5045382;28;20436;-68
2023/11/19 11:10:12;;;;;;;5.70;0.60;;;16.10;99.90;;;;;;5046013;28;20446;-68
2023/11/19 11:12:42;;;;;;;6.50;1.20;;;15.90;99.90;;;;;;5041761;28;20444;-70
2023/11/19 11:15:12;;;;;;;6.27;0.70;;;15.80;99.90;;;;;;5043595;28;20457;-69
2023/11/19 11:17:42;;;;;;;8.80;0.80;;;15.80;99.90;;;;;;5047374;28;20446;-66
2023/11/19 11:20:11;;;;;;;7.13;0.70;;;15.70;99.90;;;;;;5044771;28;20452;-69
2023/11/19 11:22:50;;;;;;;6.40;0.50;;;15.50;99.90;;;;;;5045674;28;20518;-69
2023/11/19 11:25:31;;;;;;;6.53;0.50;;;15.50;99.90;;;;;;5044694;28;20436;-68
2023/11/19 11:28:14;;;;;;;7.50;0.93;;;15.50;99.90;;;;;;5044200;28;20586;-69
2023/11/19 11:30:53;;;;;;;6.47;0.90;;;15.40;99.90;;;;;;5041012;28;20821;-68
2023/11/19 11:33:35;;;;;;;6.17;0.80;;;15.30;99.90;;;;;;5043747;28;20870;-69
2023/11/19 11:36:14;;;;;;;7.53;1.90;;;15.20;99.90;;;;;;5042204;28;20462;-69
2023/11/19 11:38:42;;;;;;;7.33;0.90;;;15.10;99.90;;;;;;5047800;28;20557;-69
2023/11/19 11:41:19;;;;;;;9.00;0.83;;;15.00;99.90;;;;;;5043321;28;20457;-69
2023/11/19 11:43:50;;;;;;;6.93;1.00;;;15.00;99.90;;;;;;5046515;28;20440;-69
2023/11/19 11:46:55;;;;;;;8.33;0.67;;;15.00;99.90;;;;;;5041570;28;20476;-70
2023/11/19 11:49:31;;;;;;;7.00;0.80;;;15.20;99.90;;;;;;5021437;28;20861;-70
2023/11/19 11:52:00;;;;;;;6.57;0.70;;;15.40;99.90;;;;;;5044546;28;21674;-68
2023/11/19 11:54:30;;;;;;;8.33;0.90;;;15.60;99.90;;;;;;5047644;28;20447;-70
2023/11/19 11:57:09;;;;;;;7.50;0.70;;;15.70;99.90;;;;;;5047697;28;20823;-64
2023/11/19 11:59:50;;;;;;;6.00;0.60;;;15.50;99.90;;;;;;5047586;28;20502;-64
2023/11/19 12:02:21;;;;;;;8.97;0.70;;;15.30;99.90;;;;;;5049564;28;20443;-62
2023/11/19 12:04:50;;;;;;;6.47;0.90;;;15.30;99.90;;;;;;5053744;28;20435;-66
2023/11/19 12:07:19;;;;;;;7.63;0.87;;;15.40;99.90;;;;;;5051482;28;20484;-66
2023/11/19 12:09:55;;;;;;;6.47;0.67;;;15.70;99.90;;;;;;5051491;28;20548;-65
2023/11/19 12:12:27;;;;;;;6.67;0.80;;;15.90;99.90;;;;;;5051954;28;20448;-65
2023/11/19 12:15:10;;;;;;;6.73;0.80;;;16.00;99.90;;;;;;5051406;28;20433;-65
2023/11/19 12:17:44;;;;;;;7.50;0.90;;;15.90;99.90;;;;;;5050222;28;20849;-65
2023/11/19 12:20:12;;;;;;;6.30;0.70;;;16.10;99.90;;;;;;5051345;28;20821;-63
2023/11/19 12:22:42;;;;;;;7.67;0.73;;;16.20;99.90;;;;;;5051483;28;20954;-64
2023/11/19 12:25:11;;;;;;;6.20;0.97;;;16.40;99.90;;;;;;5050850;28;20447;-65
2023/11/19 12:27:42;;;;;;;6.23;0.60;;;16.60;99.90;;;;;;5050671;28;20530;-66
2023/11/19 12:30:12;;;;;;;5.90;0.67;;;16.50;99.90;;;;;;5048175;28;20815;-65
2023/11/19 12:32:41;;;;;;;6.60;0.70;;;16.50;99.90;;;;;;5050759;28;20509;-66
2023/11/19 12:35:12;;;;;;;6.27;0.67;;;16.50;99.90;;;;;;5050022;28;20946;-66
2023/11/19 12:37:43;;;;;;;7.20;0.90;;;16.30;99.90;;;;;;5048023;28;20440;-61
2023/11/19 12:40:19;;;;;;;7.10;0.70;;;16.10;99.90;;;;;;5049174;28;20450;-65
2023/11/19 12:42:48;;;;;;;6.00;0.50;;;16.10;99.90;;;;;;5049589;28;20448;-66
2023/11/19 12:45:19;;;;;;;5.93;0.80;;;16.10;99.90;;;;;;5049724;28;20450;-63
2023/11/19 12:47:49;;;;;;;6.70;0.60;;;16.20;99.90;;;;;;5053769;28;20570;-64
2023/11/19 12:50:18;;;;;;;8.03;0.70;;;16.10;99.90;;;;;;5050861;28;21008;-67
2023/11/19 12:52:57;;;;;;;7.50;0.80;;;16.10;99.90;;;;;;5050894;28;20460;-64
2023/11/19 12:55:26;;;;;;;6.00;0.60;;;16.10;99.90;;;;;;5050579;28;20452;-65
2023/11/19 12:57:58;;;;;;;6.10;0.43;;;16.20;99.90;;;;;;5050848;28;20542;-66
2023/11/19 13:00:29;;;;;;;7.30;0.80;;;16.40;99.90;;;;;;5050506;28;20440;-64
2023/11/19 13:02:59;;;;;;;6.40;0.80;;;16.50;99.90;;;;;;5051271;28;20497;-63